createdAt,value
2022-11-16T00:02:13.716Z,99220.69
2022-11-16T00:04:42.596Z,99224.44
2022-11-16T00:07:11.460Z,99218.03
2022-11-16T00:09:39.382Z,99216.97
2022-11-16T00:12:09.527Z,99211.66
2022-11-16T00:14:38.276Z,99208.72
2022-11-16T00:17:06.476Z,99216.97
2022-11-16T00:19:35.691Z,99217.53
2022-11-16T00:22:03.826Z,99219.41
2022-11-16T00:24:31.761Z,99209.63
2022-11-16T00:26:59.932Z,99213.38
2022-11-16T00:29:28.049Z,99216.09
2022-11-16T00:31:56.372Z,99214.28
2022-11-16T00:34:24.871Z,99211.34
2022-11-16T00:36:54.455Z,99208.19
2022-11-16T00:39:22.493Z,99205.81
2022-11-16T00:41:50.943Z,99208.75
2022-11-16T00:44:18.986Z,99210.84
2022-11-16T00:46:47.182Z,99211.94
2022-11-16T00:49:15.270Z,99206.63
2022-11-16T00:51:43.479Z,99208.97
2022-11-16T00:54:13.486Z,99205.53
2022-11-16T00:56:41.913Z,99205.59
2022-11-16T00:59:09.803Z,99204.31
2022-11-16T01:01:38.118Z,99205.88
2022-11-16T01:04:07.463Z,99198.72
2022-11-16T01:06:37.305Z,99205.59
2022-11-16T01:09:05.249Z,99201.66
2022-11-16T01:11:52.671Z,99193.41
2022-11-16T01:14:20.601Z,99189.66
2022-11-16T01:16:50.271Z,99197.91
2022-11-16T01:19:18.241Z,99184.34
2022-11-16T01:21:46.382Z,99173.25
2022-11-16T01:24:14.274Z,99179.03
2022-11-16T01:26:43.819Z,99174.81
2022-11-16T01:29:11.726Z,99177.47
2022-11-16T01:31:44.291Z,99168.41
2022-11-16T01:34:12.228Z,99174.53
2022-11-16T01:36:40.624Z,99175.31
2022-11-16T01:39:08.627Z,99173.72
2022-11-16T01:41:49.505Z,99164.47
2022-11-16T01:44:56.588Z,99169.78
2022-11-16T01:47:24.885Z,99173.66
2022-11-16T01:49:57.740Z,99178.75
2022-11-16T01:52:32.668Z,99163.38
2022-11-16T01:55:01.476Z,99166.59
2022-11-16T01:57:42.193Z,99170.31
2022-11-16T02:00:12.564Z,99169.31
2022-11-16T02:02:51.812Z,99167.22
2022-11-16T02:05:46.866Z,99161.97
2022-11-16T02:08:41.751Z,99174.78
2022-11-16T02:11:27.650Z,99165.16
2022-11-16T02:14:05.048Z,99163.38
2022-11-16T02:16:38.798Z,99164.16
2022-11-16T02:19:20.498Z,99171.09
2022-11-16T02:21:53.087Z,99159.97
2022-11-16T02:24:36.185Z,99167.66
2022-11-16T02:27:32.603Z,99162.38
2022-11-16T02:30:02.568Z,99170.03
2022-11-16T02:32:33.120Z,99164.16
2022-11-16T02:35:04.696Z,99163.59
2022-11-16T02:37:35.497Z,99159.63
2022-11-16T02:40:07.821Z,99156.78
2022-11-16T02:42:39.086Z,99156.19
2022-11-16T02:45:11.312Z,99157.16
2022-11-16T02:47:42.704Z,99164.38
2022-11-16T02:50:13.710Z,99162.91
2022-11-16T02:52:41.688Z,99169.78
2022-11-16T02:55:12.768Z,99162.69
2022-11-16T02:57:49.953Z,99164.03
2022-11-16T03:00:22.760Z,99173.63
2022-11-16T03:03:00.037Z,99182.09
2022-11-16T03:05:35.349Z,99180.16
2022-11-16T03:08:13.478Z,99176.78
2022-11-16T03:11:00.541Z,99165.94
2022-11-16T03:13:31.480Z,99155.56
2022-11-16T03:16:02.108Z,99153.97
2022-11-16T03:18:30.290Z,99163.47
2022-11-16T03:21:07.459Z,99155.25
2022-11-16T03:23:35.519Z,99153.63
2022-11-16T03:26:07.123Z,99145.97
2022-11-16T03:28:38.103Z,99142.25
2022-11-16T03:31:12.689Z,99144.63
2022-11-16T03:33:44.549Z,99157.59
2022-11-16T03:36:17.152Z,99167.66
2022-11-16T03:38:46.616Z,99171.38
2022-11-16T03:41:15.927Z,99172.16
2022-11-16T03:43:45.006Z,99174.31
2022-11-16T03:46:16.666Z,99181.19
2022-11-16T03:48:46.381Z,99175.09
2022-11-16T03:51:22.848Z,99174.53
2022-11-16T03:53:50.784Z,99174.53
2022-11-16T03:56:19.660Z,99193.59
2022-11-16T03:58:48.200Z,99196.06
2022-11-16T04:01:17.729Z,99179.81
2022-11-16T04:03:47.155Z,99169.22
2022-11-16T04:06:35.995Z,99158.84
2022-11-16T04:09:21.561Z,99157.50
2022-11-16T04:12:08.266Z,99161.44
2022-11-16T04:14:55.299Z,99163.81
2022-11-16T04:17:46.184Z,99169.63
2022-11-16T04:20:33.580Z,99188.75
2022-11-16T04:23:27.754Z,99179.72
2022-11-16T04:25:56.627Z,99184.47
2022-11-16T04:28:27.241Z,99195.06
2022-11-16T04:31:17.517Z,99194.59
2022-11-16T04:34:20.200Z,99195.19
2022-11-16T04:37:09.857Z,99198.09
2022-11-16T04:39:38.585Z,99201.28
2022-11-16T04:42:15.341Z,99198.91
2022-11-16T04:45:02.950Z,99186.16
2022-11-16T04:47:37.600Z,99200.44
2022-11-16T04:50:08.099Z,99204.22
2022-11-16T04:52:36.186Z,99195.97
2022-11-16T04:55:06.602Z,99198.06
2022-11-16T04:57:34.594Z,99196.22
2022-11-16T05:00:03.026Z,99204.16
2022-11-16T05:02:31.520Z,99201.50
2022-11-16T05:05:00.430Z,99196.50
2022-11-16T05:07:31.748Z,99193.03
2022-11-16T05:10:08.856Z,99194.63
2022-11-16T05:12:37.116Z,99189.91
2022-11-16T05:15:08.638Z,99193.59
2022-11-16T05:17:36.766Z,99192.59
2022-11-16T05:20:28.063Z,99193.13
2022-11-16T05:23:02.350Z,99200.59
2022-11-16T05:25:36.746Z,99204.53
2022-11-16T05:28:08.132Z,99196.88
2022-11-16T05:30:40.577Z,99202.72
2022-11-16T05:33:08.789Z,99205.91
2022-11-16T05:35:41.145Z,99200.59
2022-11-16T05:38:10.825Z,99202.72
2022-11-16T05:40:43.635Z,99199.78
2022-11-16T05:43:11.960Z,99203.75
2022-11-16T05:45:47.206Z,99205.56
2022-11-16T05:48:16.838Z,99207.38
2022-11-16T05:50:45.347Z,99205.25
2022-11-16T05:53:21.923Z,99201.50
2022-11-16T05:55:50.434Z,99200.44
2022-11-16T05:58:19.703Z,99201.50
2022-11-16T06:00:50.968Z,99198.00
2022-11-16T06:03:20.511Z,99199.88
2022-11-16T06:05:57.109Z,99201.75
2022-11-16T06:08:28.528Z,99205.25
2022-11-16T06:11:02.499Z,99209.00
2022-11-16T06:13:30.856Z,99218.78
2022-11-16T06:16:01.481Z,99218.78
2022-11-16T06:18:31.853Z,99217.94
2022-11-16T06:21:00.266Z,99223.28
2022-11-16T06:23:29.524Z,99230.97
2022-11-16T06:25:58.095Z,99222.22
2022-11-16T06:28:28.663Z,99228.84
2022-11-16T06:30:57.298Z,99234.13
2022-11-16T06:33:30.895Z,99240.72
2022-11-16T06:36:02.101Z,99234.38
2022-11-16T06:38:31.642Z,99234.38
2022-11-16T06:41:01.326Z,99237.31
2022-11-16T06:43:30.678Z,99245.50
2022-11-16T06:45:59.254Z,99242.63
2022-11-16T06:48:27.163Z,99247.91
2022-11-16T06:50:55.833Z,99245.03
2022-11-16T06:53:28.942Z,99246.09
2022-11-16T06:56:04.034Z,99246.66
2022-11-16T06:58:34.504Z,99248.00
2022-11-16T07:01:07.489Z,99253.06
2022-11-16T07:03:36.296Z,99250.19
2022-11-16T07:06:10.076Z,99261.34
2022-11-16T07:08:39.293Z,99264.31
2022-11-16T07:11:10.504Z,99262.72
2022-11-16T07:13:39.653Z,99272.31
2022-11-16T07:16:11.937Z,99270.75
2022-11-16T07:18:45.621Z,99269.94
2022-11-16T07:21:16.115Z,99273.13
2022-11-16T07:23:45.773Z,99268.59
2022-11-16T07:26:21.667Z,99279.72
2022-11-16T07:28:55.294Z,99280.22
2022-11-16T07:31:25.014Z,99287.09
2022-11-16T07:34:12.888Z,99283.41
2022-11-16T07:36:47.358Z,99282.84
2022-11-16T07:39:15.379Z,99290.28
2022-11-16T07:41:46.939Z,99290.84
2022-11-16T07:44:25.256Z,99298.28
2022-11-16T07:47:06.033Z,99303.56
2022-11-16T07:49:35.940Z,99319.75
2022-11-16T07:52:11.970Z,99314.97
2022-11-16T07:54:59.589Z,99314.19
2022-11-16T07:57:30.580Z,99320.53
2022-11-16T08:00:02.232Z,99326.28
2022-11-16T08:02:41.594Z,99325.78
2022-11-16T08:05:15.705Z,99326.84
2022-11-16T08:07:43.994Z,99332.38
2022-11-16T08:10:12.038Z,99338.50
2022-11-16T08:12:42.571Z,99340.34
2022-11-16T08:15:14.014Z,99334.19
2022-11-16T08:17:42.530Z,99333.66
2022-11-16T08:20:13.218Z,99334.72
2022-11-16T08:22:42.264Z,99330.22
2022-11-16T08:25:10.857Z,99331.75
2022-11-16T08:27:43.304Z,99333.56
2022-11-16T08:30:12.958Z,99333.00
2022-11-16T08:32:42.653Z,99334.06
2022-11-16T08:35:12.025Z,99338.78
2022-11-16T08:37:40.370Z,99345.16
2022-11-16T08:40:12.615Z,99344.03
2022-11-16T08:42:43.960Z,99343.47
2022-11-16T08:45:13.136Z,99337.63
2022-11-16T08:47:42.522Z,99338.09
2022-11-16T08:50:10.922Z,99343.69
2022-11-16T08:52:39.477Z,99342.84
2022-11-16T08:55:08.168Z,99346.53
2022-11-16T08:57:36.350Z,99350.75
2022-11-16T09:00:12.171Z,99351.78
2022-11-16T09:02:40.362Z,99356.22
2022-11-16T09:05:11.806Z,99355.88
2022-11-16T09:07:40.903Z,99353.16
2022-11-16T09:10:09.992Z,99351.47
2022-11-16T09:12:38.696Z,99343.44
2022-11-16T09:15:07.888Z,99344.91
2022-11-16T09:17:37.353Z,99347.56
2022-11-16T09:20:06.307Z,99358.13
2022-11-16T09:22:34.437Z,99360.22
2022-11-16T09:25:02.336Z,99358.59
2022-11-16T09:27:30.567Z,99358.59
2022-11-16T09:29:58.494Z,99354.97
2022-11-16T09:32:26.650Z,99352.25
2022-11-16T09:34:55.970Z,99355.41
2022-11-16T09:37:24.172Z,99353.03
2022-11-16T09:39:52.196Z,99357.00
2022-11-16T09:42:32.459Z,99352.13
2022-11-16T09:45:04.469Z,99353.56
2022-11-16T09:47:42.618Z,99356.63
2022-11-16T09:50:20.450Z,99362.97
2022-11-16T09:52:50.421Z,99356.28
2022-11-16T09:55:24.646Z,99357.66
2022-11-16T09:57:53.809Z,99363.22
2022-11-16T10:00:23.609Z,99357.66
2022-11-16T10:03:00.437Z,99355.97
2022-11-16T10:05:33.847Z,99370.44
2022-11-16T10:08:05.813Z,99371.66
2022-11-16T10:10:37.789Z,99367.34
2022-11-16T10:13:13.261Z,99368.13
2022-11-16T10:15:50.862Z,99372.91
2022-11-16T10:18:31.651Z,99359.09
2022-11-16T10:21:12.895Z,99357.34
2022-11-16T10:23:50.746Z,99355.09
2022-11-16T10:26:28.198Z,99360.84
2022-11-16T10:29:18.922Z,99349.03
2022-11-16T10:31:58.128Z,99349.03
2022-11-16T10:34:27.079Z,99342.06
2022-11-16T10:36:59.647Z,99343.56
2022-11-16T10:39:28.390Z,99338.94
2022-11-16T10:41:57.422Z,99333.84
2022-11-16T10:44:33.843Z,99331.34
2022-11-16T10:47:04.606Z,99328.38
2022-11-16T10:49:39.856Z,99324.44
2022-11-16T10:52:09.461Z,99323.28
2022-11-16T10:54:41.445Z,99326.88
2022-11-16T10:57:27.629Z,99318.44
2022-11-16T10:59:57.673Z,99316.28
2022-11-16T11:02:32.175Z,99315.75
2022-11-16T11:05:06.517Z,99303.88
2022-11-16T11:07:39.662Z,99314.13
2022-11-16T11:10:29.895Z,99309.09
2022-11-16T11:13:07.572Z,99308.41
2022-11-16T11:15:35.842Z,99302.47
2022-11-16T11:18:18.959Z,99295.31
2022-11-16T11:20:50.170Z,99304.28
2022-11-16T11:23:21.181Z,99294.75
2022-11-16T11:25:52.484Z,99302.72
2022-11-16T11:28:23.972Z,99299.09
2022-11-16T11:30:54.933Z,99302.72
2022-11-16T11:33:23.789Z,99296.50
2022-11-16T11:35:58.750Z,99305.44
2022-11-16T11:38:28.046Z,99301.81
2022-11-16T11:40:59.091Z,99293.44
2022-11-16T11:43:27.914Z,99299.16
2022-11-16T11:46:01.282Z,99292.06
2022-11-16T11:48:35.550Z,99289.66
2022-11-16T11:51:10.508Z,99285.94
2022-11-16T11:53:45.610Z,99290.84
2022-11-16T11:56:15.190Z,99282.34
2022-11-16T11:58:43.478Z,99287.69
2022-11-16T12:01:32.810Z,99277.03
2022-11-16T12:04:26.791Z,99272.41
2022-11-16T12:07:00.846Z,99273.13
2022-11-16T12:09:36.154Z,99278.53
2022-11-16T12:12:16.978Z,99272.09
2022-11-16T12:15:01.306Z,99270.53
2022-11-16T12:17:37.193Z,99273.13
2022-11-16T12:20:17.828Z,99258.91
2022-11-16T12:23:15.115Z,99266.22
2022-11-16T12:25:48.513Z,99250.44
2022-11-16T12:28:24.861Z,99252.56
2022-11-16T12:31:03.102Z,99243.84
2022-11-16T12:33:40.107Z,99237.78
2022-11-16T12:36:15.887Z,99240.19
2022-11-16T12:38:52.100Z,99240.69
2022-11-16T12:41:42.517Z,99233.69
2022-11-16T12:44:12.111Z,99231.94
2022-11-16T12:46:48.843Z,99224.03
2022-11-16T12:49:29.875Z,99226.31
2022-11-16T12:52:07.811Z,99225.44
2022-11-16T12:55:19.211Z,99210.41
2022-11-16T12:57:44.895Z,99213.41
2022-11-16T13:00:14.791Z,99207.53
2022-11-16T13:02:56.404Z,99209.09
2022-11-16T13:05:26.503Z,99204.53
2022-11-16T13:07:57.676Z,99196.53
2022-11-16T13:10:28.354Z,99201.50
2022-11-16T13:13:22.279Z,99198.25
2022-11-16T13:15:50.272Z,99191.69
2022-11-16T13:18:20.673Z,99182.06
2022-11-16T13:20:54.044Z,99181.25
2022-11-16T13:23:26.726Z,99177.75
2022-11-16T13:26:02.045Z,99170.72
2022-11-16T13:28:36.513Z,99170.53
2022-11-16T13:31:09.563Z,99175.28
2022-11-16T13:33:49.327Z,99172.88
2022-11-16T13:36:45.164Z,99171.66
2022-11-16T13:39:21.487Z,99163.25
2022-11-16T13:41:51.647Z,99159.03
2022-11-16T13:44:31.098Z,99144.16
2022-11-16T13:47:04.245Z,99137.50
2022-11-16T13:49:35.140Z,99140.16
2022-11-16T13:52:22.150Z,99137.47
2022-11-16T13:54:53.488Z,99136.78
2022-11-16T13:57:25.474Z,99140.00
2022-11-16T14:00:08.905Z,99143.50
2022-11-16T14:02:38.209Z,99147.69
2022-11-16T14:05:15.329Z,99143.09
2022-11-16T14:07:46.942Z,99137.81
2022-11-16T14:11:01.473Z,99137.41
2022-11-16T14:13:39.667Z,99148.59
2022-11-16T14:16:55.820Z,99155.13
2022-11-16T14:19:54.904Z,99145.25
2022-11-16T14:22:39.645Z,99133.16
2022-11-16T14:25:15.505Z,99132.09
2022-11-16T14:27:48.910Z,99137.88
2022-11-16T14:30:20.638Z,99134.69
2022-11-16T14:32:50.404Z,99140.72
2022-11-16T14:35:28.711Z,99137.47
2022-11-16T14:37:58.561Z,99141.38
2022-11-16T14:40:26.949Z,99139.31
2022-11-16T14:45:48.136Z,99132.34
2022-11-16T14:48:18.675Z,99137.53
2022-11-16T14:51:01.502Z,99135.00
2022-11-16T14:53:30.330Z,99137.00
2022-11-16T14:56:07.443Z,99136.78
2022-11-16T14:58:35.823Z,99134.63
2022-11-16T15:01:06.001Z,99132.28
2022-11-16T15:03:36.468Z,99132.59
2022-11-16T15:06:07.789Z,99137.75
2022-11-16T15:08:38.498Z,99136.97
2022-11-16T15:11:08.858Z,99141.09
2022-11-16T15:13:37.028Z,99121.75
2022-11-16T15:16:09.810Z,99123.59
2022-11-16T15:18:37.745Z,99123.91
2022-11-16T15:21:07.381Z,99120.44
2022-11-16T15:24:02.065Z,99121.16
2022-11-16T15:26:35.611Z,99119.63
2022-11-16T15:29:03.669Z,99102.47
2022-11-16T15:31:31.956Z,99102.03
2022-11-16T15:34:00.194Z,99095.03
2022-11-16T15:36:33.939Z,99095.16
2022-11-16T15:39:02.294Z,99094.19
2022-11-16T15:41:30.595Z,99089.97
2022-11-16T15:44:16.359Z,99091.66
2022-11-16T15:46:46.904Z,99093.38
2022-11-16T15:49:25.783Z,99086.09
2022-11-16T15:51:55.447Z,99092.03
2022-11-16T15:54:27.133Z,99097.38
2022-11-16T15:56:57.102Z,99093.13
2022-11-16T15:59:28.568Z,99090.25
2022-11-16T16:01:57.232Z,99090.06
2022-11-16T16:04:25.984Z,99080.63
2022-11-16T16:06:56.796Z,99078.09
2022-11-16T16:09:27.519Z,99072.38
2022-11-16T16:11:57.123Z,99056.81
2022-11-16T16:14:28.873Z,99062.56
2022-11-16T16:16:59.120Z,99070.69
2022-11-16T16:19:33.739Z,99075.00
2022-11-16T16:22:04.012Z,99077.78
2022-11-16T16:24:41.106Z,99071.50
2022-11-16T16:27:14.818Z,99074.47
2022-11-16T16:29:43.218Z,99078.81
2022-11-16T16:32:19.757Z,99076.16
2022-11-16T16:34:47.681Z,99081.97
2022-11-16T16:37:17.524Z,99067.84
2022-11-16T16:39:45.756Z,99074.88
2022-11-16T16:42:15.485Z,99069.38
2022-11-16T16:44:44.787Z,99071.84
2022-11-16T16:47:13.386Z,99057.53
2022-11-16T16:49:41.547Z,99052.31
2022-11-16T16:52:12.427Z,99054.81
2022-11-16T16:54:42.263Z,99042.88
2022-11-16T16:57:14.108Z,99043.97
2022-11-16T16:59:42.408Z,99042.38
2022-11-16T17:02:11.154Z,99049.28
2022-11-16T17:04:39.231Z,99047.09
2022-11-16T17:07:07.545Z,99046.34
2022-11-16T17:09:35.427Z,99041.78
2022-11-16T17:12:05.299Z,99047.09
2022-11-16T17:14:33.231Z,99034.88
2022-11-16T17:17:01.443Z,99039.41
2022-11-16T17:19:29.893Z,99034.88
2022-11-16T17:21:58.169Z,99030.16
2022-11-16T17:24:26.055Z,99030.16
2022-11-16T17:26:54.281Z,99028.59
2022-11-16T17:29:23.672Z,99019.53
2022-11-16T17:31:51.929Z,99017.97
2022-11-16T17:34:19.921Z,99014.31
2022-11-16T17:36:48.225Z,99021.69
2022-11-16T17:39:16.683Z,99014.31
2022-11-16T17:41:44.853Z,99015.41
2022-11-16T17:44:17.188Z,99004.75
2022-11-16T17:46:49.971Z,99003.16
2022-11-16T17:49:17.971Z,99001.59
2022-11-16T17:51:46.312Z,98999.25
2022-11-16T17:54:14.440Z,98995.28
2022-11-16T17:56:42.633Z,98995.88
2022-11-16T17:59:10.655Z,98991.16
2022-11-16T18:01:39.355Z,98982.69
2022-11-16T18:04:08.834Z,98980.13
2022-11-16T18:06:37.577Z,98980.75
2022-11-16T18:09:05.659Z,98982.13
2022-11-16T18:11:33.951Z,98978.19
2022-11-16T18:14:05.384Z,98968.16
2022-11-16T18:16:34.558Z,98967.19
2022-11-16T18:19:04.082Z,98969.94
2022-11-16T18:21:39.490Z,98978.50
2022-11-16T18:24:08.166Z,98972.72
2022-11-16T18:26:36.794Z,98964.22
2022-11-16T18:29:05.215Z,98964.22
2022-11-16T18:31:33.944Z,98961.88
2022-11-16T18:34:02.719Z,98949.59
2022-11-16T18:36:30.897Z,98946.72
2022-11-16T18:39:00.228Z,98958.13
2022-11-16T18:41:29.467Z,98959.72
2022-11-16T18:43:58.501Z,98960.47
2022-11-16T18:46:28.137Z,98962.06
2022-11-16T18:48:56.504Z,98953.78
2022-11-16T18:51:26.028Z,98950.84
2022-11-16T18:53:54.512Z,98956.16
2022-11-16T18:56:25.259Z,98938.59
2022-11-16T18:58:53.769Z,98945.50
2022-11-16T19:01:23.361Z,98952.41
2022-11-16T19:03:51.845Z,98941.75
2022-11-16T19:06:20.353Z,98942.56
2022-11-16T19:08:55.355Z,98934.28
2022-11-16T19:11:25.989Z,98934.28
2022-11-16T19:13:55.330Z,98934.78
2022-11-16T19:16:24.933Z,98936.63
2022-11-16T19:18:53.119Z,98934.28
2022-11-16T19:21:22.754Z,98934.28
2022-11-16T19:23:52.812Z,98935.84
2022-11-16T19:26:27.815Z,98928.66
2022-11-16T19:28:56.023Z,98935.84
2022-11-16T19:31:26.135Z,98934.28
2022-11-16T19:33:55.233Z,98935.06
2022-11-16T19:36:25.490Z,98934.28
2022-11-16T19:38:54.963Z,98930.50
2022-11-16T19:41:25.923Z,98931.31
2022-11-16T19:43:59.512Z,98926.78
2022-11-16T19:46:29.399Z,98935.06
2022-11-16T19:48:58.184Z,98944.13
2022-11-16T19:51:28.164Z,98945.50
2022-11-16T19:53:56.503Z,98943.91
2022-11-16T19:56:26.583Z,98946.13
2022-11-16T19:58:55.002Z,98943.75
2022-11-16T20:01:27.936Z,98936.06
2022-11-16T20:03:57.505Z,98927.56
2022-11-16T20:06:29.595Z,98925.50
2022-11-16T20:09:00.724Z,98907.47
2022-11-16T20:11:33.564Z,98900.41
2022-11-16T20:14:02.855Z,98902.38
2022-11-16T20:16:38.377Z,98901.41
2022-11-16T20:19:07.496Z,98888.22
2022-11-16T20:21:37.040Z,98887.25
2022-11-16T20:24:07.260Z,98882.50
2022-11-16T20:29:05.952Z,98899.63
2022-11-16T20:31:34.638Z,98896.97
2022-11-16T20:34:04.268Z,98893.81
2022-11-16T20:36:33.955Z,98899.13
2022-11-16T20:39:02.336Z,98888.03
2022-11-16T20:41:32.022Z,98889.59
2022-11-16T20:44:02.419Z,98887.25
2022-11-16T20:46:31.824Z,98888.03
2022-11-16T20:49:01.627Z,98881.63
2022-11-16T20:51:30.416Z,98878.56
2022-11-16T20:53:58.887Z,98871.75
2022-11-16T20:56:30.042Z,98867.34
2022-11-16T20:58:58.245Z,98866.72
2022-11-16T21:01:31.446Z,98856.91
2022-11-16T21:04:01.196Z,98856.69
2022-11-16T21:06:29.917Z,98858.06
2022-11-16T21:08:57.884Z,98857.91
2022-11-16T21:11:28.785Z,98851.59
2022-11-16T21:14:14.775Z,98852.19
2022-11-16T21:16:44.704Z,98852.31
2022-11-16T21:19:12.889Z,98843.81
2022-11-16T21:21:41.431Z,98840.97
2022-11-16T21:24:09.726Z,98845.81
2022-11-16T21:26:38.090Z,98841.06
2022-11-16T21:29:06.559Z,98835.59
2022-11-16T21:31:36.663Z,98824.47
2022-11-16T21:34:07.398Z,98826.03
2022-11-16T21:36:36.029Z,98826.03
2022-11-16T21:39:03.971Z,98825.53
2022-11-16T21:41:32.542Z,98832.75
2022-11-16T21:44:00.484Z,98832.53
2022-11-16T21:46:28.807Z,98828.78
2022-11-16T21:48:57.191Z,98826.13
2022-11-16T21:51:27.808Z,98820.31
2022-11-16T21:53:56.049Z,98823.09
2022-11-16T21:56:25.432Z,98824.66
2022-11-16T21:58:54.136Z,98821.91
2022-11-16T22:01:23.367Z,98819.56
2022-11-16T22:04:11.478Z,98821.72
2022-11-16T22:06:58.530Z,98820.16
2022-11-16T22:09:26.543Z,98818.59
2022-11-16T22:11:54.768Z,98810.63
2022-11-16T22:14:22.655Z,98817.78
2022-11-16T22:16:50.610Z,98809.03
2022-11-16T22:19:18.765Z,98804.00
2022-11-16T22:21:48.009Z,98805.09
2022-11-16T22:24:16.343Z,98804.81
2022-11-16T22:26:44.240Z,98804.81
2022-11-16T22:29:12.347Z,98802.66
2022-11-16T22:31:40.413Z,98807.38
2022-11-16T22:34:08.516Z,98802.06
2022-11-16T22:36:36.433Z,98798.31
2022-11-16T22:39:05.994Z,98789.25
2022-11-16T22:41:33.875Z,98786.31
2022-11-16T22:44:02.014Z,98787.88
2022-11-16T22:46:29.904Z,98781.78
2022-11-16T22:48:58.037Z,98780.72
2022-11-16T22:51:27.010Z,98777.75
2022-11-16T22:53:55.536Z,98775.09
2022-11-16T22:56:25.024Z,98781.97
2022-11-16T22:58:53.642Z,98766.03
2022-11-16T23:01:22.038Z,98761.53
2022-11-16T23:03:50.572Z,98757.75
2022-11-16T23:06:18.556Z,98759.34
2022-11-16T23:08:46.677Z,98750.28
2022-11-16T23:11:34.039Z,98750.28
2022-11-16T23:14:21.534Z,98744.97
2022-11-16T23:16:50.486Z,98740.47
2022-11-16T23:19:37.491Z,98735.91
2022-11-16T23:22:23.257Z,98731.69
2022-11-16T23:25:08.860Z,98728.25
2022-11-16T23:27:40.932Z,98730.59
2022-11-16T23:30:13.197Z,98729.03
2022-11-16T23:32:42.229Z,98724.81
2022-11-16T23:35:12.073Z,98720.56
2022-11-16T23:37:53.976Z,98712.41
2022-11-16T23:40:23.934Z,98714.88
2022-11-16T23:43:10.115Z,98705.94
2022-11-16T23:45:40.062Z,98694.84
2022-11-16T23:48:08.982Z,98686.38
2022-11-16T23:50:37.650Z,98679.00
2022-11-16T23:53:06.698Z,98676.94
2022-11-16T23:55:35.506Z,98670.69
2022-11-16T23:58:03.458Z,98659.88
